Cushing, Utah
Current Conditions -  °F | °C
As of 1:53 AM on Friday 31 Oct 2014 (Local Time) from KSLC Reporting Station
Scattered Clouds Scattered Clouds  
Wind Chill: 52°   Ceiling: Unl
Heat Index: 52°   Visibility: 10mi
Dew Point: 30°   Wind: 10mph
Humidity: 43%   Direction: 160°SSE
Pressure: 30.07"   Gusts: NA
Location:  40.615°N, 111.891°W
Report Text: KSLC 310753Z 16009KT 10SM SCT250 11/M01 A3007 RMK AO2 SLP150 T01111011
Loading
Personal Weather Stations






























Interactive Weather Map
Tropical Storm Tracking
New forecast layout! Learn more

10-Day Weather Forecast

Advertisements
Track Severe Weather on mobile